Time;durP1;ratioP1;P1;durP2;ratioP2;P2;SDS_P1;SDS_P2;PMS_P1;PMS_P2;Temp;Humidity;BMP_temperature;BMP_pressure;BME280_temperature;BME280_humidity;BME280_pressure;Samples;Min_cycle;Max_cycle;Signal;HPM_P1;HPM_P2
2022/05/11 00:00:35;;;;;;;4.60;2.37;;;;;;;;;;4838484;29;20184;-89
2022/05/11 00:03:01;;;;;;;3.03;2.30;;;;;;;;;;4842510;29;20261;-89
2022/05/11 00:05:30;;;;;;;3.80;2.47;;;8.80;99.90;;;;;;4824393;29;20196;-89
2022/05/11 00:07:55;;;;;;;3.23;2.50;;;9.00;99.90;;;;;;4841903;29;20184;-89
2022/05/11 00:10:21;;;;;;;6.63;2.93;;;;;;;;;;4826245;29;20188;-90
2022/05/11 00:12:50;;;;;;;7.73;3.50;;;8.70;99.90;;;;;;4841581;29;20217;-88
2022/05/11 00:15:21;;;;;;;6.03;2.90;;;8.90;99.90;;;;;;4840404;29;20601;-89
2022/05/11 00:17:47;;;;;;;2.80;2.13;;;8.60;99.90;;;;;;4841647;29;20264;-89
2022/05/11 00:20:15;;;;;;;3.53;2.73;;;8.80;99.90;;;;;;4841055;29;20180;-88
2022/05/11 00:22:41;;;;;;;4.80;2.87;;;;;;;;;;4839850;29;20219;-91
2022/05/11 00:25:09;;;;;;;7.53;2.83;;;8.50;99.90;;;;;;4838555;29;20192;-89
2022/05/11 00:27:34;;;;;;;3.90;2.23;;;8.90;99.90;;;;;;4823013;29;20215;-90
2022/05/11 00:30:02;;;;;;;5.60;2.27;;;;;;;;;;4838831;29;20180;-89
2022/05/11 00:32:28;;;;;;;4.93;2.37;;;8.40;99.90;;;;;;4834819;29;20336;-89
2022/05/11 00:34:54;;;;;;;7.10;3.73;;;;;;;;;;4834040;29;20211;-89
2022/05/11 00:37:20;;;;;;;3.00;2.37;;;8.60;99.90;;;;;;4832634;29;20188;-89
2022/05/11 00:39:46;;;;;;;6.37;2.47;;;;;;;;;;4830300;29;20188;-88
2022/05/11 00:42:12;;;;;;;3.90;3.00;;;;;;;;;;4828427;29;20677;-87
2022/05/11 00:44:38;;;;;;;4.63;2.57;;;8.50;99.90;;;;;;4828863;29;20196;-89
2022/05/11 00:47:10;;;;;;;3.57;2.53;;;8.50;99.90;;;;;;4834362;29;20639;-89
2022/05/11 00:49:48;;;;;;;5.30;2.53;;;8.40;99.90;;;;;;4833835;29;20184;-90
2022/05/11 00:52:36;;;;;;;4.23;2.47;;;8.60;99.90;;;;;;4827962;29;20195;-90
2022/05/11 00:55:13;;;;;;;2.83;1.60;;;8.80;99.90;;;;;;4827186;29;20465;-89
2022/05/11 00:57:44;;;;;;;3.97;2.23;;;8.60;99.90;;;;;;4833221;29;20180;-89
2022/05/11 01:00:11;;;;;;;4.20;2.53;;;8.40;99.90;;;;;;4833597;29;20180;-89
2022/05/11 01:02:38;;;;;;;7.20;2.53;;;8.60;99.90;;;;;;4820219;29;20238;-89
2022/05/11 01:05:07;;;;;;;4.50;2.50;;;8.90;99.90;;;;;;4831510;29;20194;-90
2022/05/11 01:07:34;;;;;;;4.07;3.37;;;8.60;99.90;;;;;;4832355;29;20184;-88
2022/05/11 01:10:03;;;;;;;6.70;2.57;;;;;;;;;;4830271;29;20274;-89
2022/05/11 01:12:35;;;;;;;5.37;2.27;;;8.50;99.90;;;;;;4811231;29;20219;-89
2022/05/11 01:15:04;;;;;;;6.90;2.80;;;8.40;99.90;;;;;;4825207;29;20232;-89
2022/05/11 01:17:35;;;;;;;9.07;3.03;;;8.30;99.90;;;;;;4825740;29;20188;-88
2022/05/11 01:20:04;;;;;;;3.63;2.60;;;8.30;99.90;;;;;;4826429;29;20383;-88
2022/05/11 01:22:42;;;;;;;4.93;2.83;;;8.30;99.90;;;;;;4826139;29;20276;-88
2022/05/11 01:25:09;;;;;;;5.70;2.63;;;8.10;99.90;;;;;;4825965;29;20267;-89
2022/05/11 01:27:39;;;;;;;3.27;2.07;;;8.10;99.90;;;;;;4809676;29;20582;-89
2022/05/11 01:30:20;;;;;;;4.37;2.50;;;8.60;99.90;;;;;;4825343;29;20233;-88
2022/05/11 01:32:53;;;;;;;6.80;3.00;;;7.90;99.90;;;;;;4824855;29;20198;-89
2022/05/11 01:35:20;;;;;;;6.93;2.50;;;;;;;;;;4824953;29;20237;-90
2022/05/11 01:38:14;;;;;;;2.03;1.83;;;8.10;99.90;;;;;;4824641;29;20198;-90
2022/05/11 01:40:40;;;;;;;4.90;2.50;;;;;;;;;;4824030;29;20252;-89
2022/05/11 01:43:06;;;;;;;4.20;2.40;;;;;;;;;;4824586;29;20219;-90
2022/05/11 01:45:33;;;;;;;4.90;2.57;;;;;;;;;;4824775;29;20635;-89
2022/05/11 01:47:59;;;;;;;8.20;2.53;;;;;;;;;;4826500;29;20283;-89
2022/05/11 01:50:25;;;;;;;5.07;2.60;;;8.00;99.90;;;;;;4814840;29;20203;-89
2022/05/11 01:52:52;;;;;;;3.97;2.37;;;;;;;;;;4836470;29;20188;-89
2022/05/11 01:55:18;;;;;;;6.60;2.53;;;;;;;;;;4824386;29;20192;-89
2022/05/11 01:57:44;;;;;;;3.33;2.70;;;;;;;;;;4840720;29;20192;-89
2022/05/11 02:00:13;;;;;;;9.30;2.30;;;8.00;99.90;;;;;;4841851;29;20184;-90
2022/05/11 02:02:39;;;;;;;4.20;2.60;;;;;;;;;;4843707;29;20310;-89
2022/05/11 02:07:51;;;;;;;4.77;3.10;;;;;;;;;;4846977;29;20195;-93
2022/05/11 02:10:24;;;;;;;4.90;2.80;;;8.30;99.90;;;;;;4831734;29;20187;-90
2022/05/11 02:12:53;;;;;;;5.57;2.60;;;8.00;99.90;;;;;;4845860;29;20251;-91
2022/05/11 02:15:20;;;;;;;7.63;2.77;;;8.00;99.90;;;;;;4845302;29;20243;-89
2022/05/11 02:17:46;;;;;;;12.40;2.70;;;;;;;;;;4845858;29;20213;-89
2022/05/11 02:20:17;;;;;;;4.60;3.30;;;8.00;99.90;;;;;;4845872;29;20192;-89
2022/05/11 02:22:43;;;;;;;6.23;2.70;;;;;;;;;;4845825;29;20236;-90
2022/05/11 02:25:10;;;;;;;6.37;3.40;;;7.90;99.90;;;;;;4845969;29;20196;-90
2022/05/11 02:27:38;;;;;;;4.27;2.80;;;;;;;;;;4846438;29;20208;-89
2022/05/11 02:30:07;;;;;;;3.10;2.50;;;7.70;99.90;;;;;;4842169;29;20192;-90
2022/05/11 02:32:33;;;;;;;4.17;3.13;;;;;;;;;;4826917;29;20281;-90
2022/05/11 02:35:16;;;;;;;6.57;3.93;;;;;;;;;;4811554;29;20192;-91
2022/05/11 02:37:53;;;;;;;4.73;3.27;;;7.80;99.90;;;;;;4827236;29;20192;-91
2022/05/11 02:40:25;;;;;;;4.33;2.80;;;8.20;99.90;;;;;;4827664;29;20164;-92
2022/05/11 02:42:52;;;;;;;4.97;2.53;;;;;;;;;;4825759;29;20259;-89
2022/05/11 02:45:19;;;;;;;2.50;2.20;;;8.10;99.90;;;;;;4825756;29;20267;-90
2022/05/11 02:47:45;;;;;;;4.93;3.33;;;7.90;99.90;;;;;;4825518;29;20201;-90
2022/05/11 02:50:14;;;;;;;4.87;3.10;;;7.90;99.90;;;;;;4810871;29;20196;-90
2022/05/11 02:52:40;;;;;;;5.23;2.37;;;;;;;;;;4825866;29;20191;-90
2022/05/11 02:55:06;;;;;;;5.40;2.53;;;8.00;99.90;;;;;;4825805;29;20184;-91
2022/05/11 02:57:32;;;;;;;6.73;3.40;;;;;;;;;;4827331;29;20667;-90
2022/05/11 02:59:59;;;;;;;4.53;2.77;;;;;;;;;;4825630;29;20196;-90
2022/05/11 03:02:25;;;;;;;4.83;2.77;;;;;;;;;;4825588;29;20219;-90
2022/05/11 03:04:52;;;;;;;5.60;3.10;;;;;;;;;;4826003;29;20195;-90
2022/05/11 03:07:18;;;;;;;4.63;3.03;;;;;;;;;;4809579;29;20196;-91
2022/05/11 03:09:44;;;;;;;6.00;2.97;;;;;;;;;;4826311;29;20227;-89
2022/05/11 03:12:11;;;;;;;5.47;2.57;;;8.30;99.90;;;;;;4827247;29;20188;-92
2022/05/11 03:14:37;;;;;;;7.67;3.10;;;;;;;;;;4825934;29;20319;-90
2022/05/11 03:17:04;;;;;;;6.20;2.73;;;;;;;;;;4825618;29;20672;-93
2022/05/11 03:19:30;;;;;;;3.07;2.57;;;;;;;;;;4825675;29;20256;-91
2022/05/11 03:21:57;;;;;;;4.97;3.03;;;;;;;;;;4825937;29;20222;-93
2022/05/11 03:24:23;;;;;;;3.93;2.23;;;;;;;;;;4810330;29;20207;-92
2022/05/11 03:26:49;;;;;;;4.73;2.57;;;;;;;;;;4824961;29;20275;-86
2022/05/11 03:29:16;;;;;;;3.17;2.50;;;;;;;;;;4824441;29;20188;-91
2022/05/11 03:34:36;;;;;;;5.27;2.53;;;;;;;;;;4824969;29;20200;-91
2022/05/11 03:34:37;;;;;;;3.57;2.63;;;;;;;;;;4824837;29;20192;-92
2022/05/11 03:37:15;;;;;;;4.53;2.73;;;8.30;99.90;;;;;;4809894;29;20192;-89
2022/05/11 03:39:41;;;;;;;3.37;2.37;;;;;;;;;;4831805;29;20670;-93
2022/05/11 03:42:12;;;;;;;5.57;2.87;;;8.60;99.90;;;;;;4818333;29;20316;-90
2022/05/11 03:44:38;;;;;;;3.77;2.50;;;;;;;;;;4823882;29;20192;-89
2022/05/11 03:47:04;;;;;;;5.47;2.83;;;8.20;99.90;;;;;;4822679;29;20200;-89
2022/05/11 03:49:30;;;;;;;3.03;2.60;;;;;;;;;;4822940;29;20244;-88
2022/05/11 03:51:56;;;;;;;4.37;2.30;;;;;;;;;;4822506;29;20204;-88
2022/05/11 03:54:23;;;;;;;7.20;3.00;;;;;;;;;;4826960;29;20195;-88
2022/05/11 03:56:49;;;;;;;4.03;1.83;;;;;;;;;;4825440;29;20192;-87
2022/05/11 03:59:15;;;;;;;6.03;2.17;;;;;;;;;;4827471;29;20203;-88
2022/05/11 04:01:41;;;;;;;5.20;2.77;;;9.00;99.90;;;;;;4826165;29;20215;-87
2022/05/11 04:04:06;;;;;;;3.73;2.20;;;9.10;99.90;;;;;;4828440;29;20200;-87
2022/05/11 04:06:33;;;;;;;4.37;2.60;;;;;;;;;;4813703;29;20674;-89
2022/05/11 04:08:59;;;;;;;4.27;2.50;;;9.20;99.90;;;;;;4825815;29;20203;-88
2022/05/11 04:11:25;;;;;;;2.87;2.13;;;;;;;;;;4826341;29;20204;-89
2022/05/11 04:13:51;;;;;;;4.57;2.37;;;9.70;99.90;;;;;;4838771;29;20242;-89
2022/05/11 04:16:18;;;;;;;4.37;2.23;;;;;;;;;;4822582;29;20287;-88
2022/05/11 04:18:44;;;;;;;3.77;2.10;;;9.40;99.90;;;;;;4841599;29;20693;-88
2022/05/11 04:21:10;;;;;;;2.70;1.80;;;9.40;99.90;;;;;;4808809;29;20714;-89
2022/05/11 04:23:36;;;;;;;2.07;1.80;;;9.50;99.90;;;;;;4823567;29;20203;-88
2022/05/11 04:26:03;;;;;;;3.23;2.43;;;9.60;99.90;;;;;;4825555;29;20198;-89
2022/05/11 04:28:30;;;;;;;7.13;3.03;;;9.90;99.90;;;;;;4827410;29;20204;-87
2022/05/11 04:31:07;;;;;;;3.70;2.07;;;10.20;99.90;;;;;;4811349;29;20230;-88
2022/05/11 04:33:34;;;;;;;3.23;1.87;;;10.00;99.90;;;;;;4821797;29;20192;-90
2022/05/11 04:36:01;;;;;;;5.93;2.77;;;;;;;;;;4823453;29;20197;-90
2022/05/11 04:38:27;;;;;;;7.60;2.75;;;10.30;99.90;;;;;;4824783;29;20191;-87
2022/05/11 04:40:53;;;;;;;2.23;1.80;;;10.40;99.90;;;;;;4825220;29;20184;-88
2022/05/11 04:43:21;;;;;;;4.30;2.07;;;10.50;99.90;;;;;;4818787;29;20223;-89
2022/05/11 04:45:47;;;;;;;2.67;1.75;;;10.60;99.90;;;;;;4822574;29;20196;-88
2022/05/11 04:48:14;;;;;;;2.50;1.90;;;11.00;99.90;;;;;;4808599;29;20217;-86
2022/05/11 04:50:44;;;;;;;2.95;1.70;;;11.10;99.90;;;;;;4826059;29;20196;-88
2022/05/11 04:53:13;;;;;;;4.32;2.63;;;10.90;99.90;;;;;;4825039;29;20219;-89
2022/05/11 04:55:39;;;;;;;2.38;1.80;;;11.60;99.90;;;;;;4824754;29;20200;-87
2022/05/11 04:58:05;;;;;;;2.42;1.77;;;11.80;99.90;;;;;;4826000;29;20760;-90
2022/05/11 05:00:35;;;;;;;4.22;2.30;;;11.80;99.90;;;;;;4840537;29;20275;-88
2022/05/11 05:03:04;;;;;;;1.90;1.13;;;12.00;99.90;;;;;;4826781;29;20211;-88
2022/05/11 05:05:30;;;;;;;4.63;1.92;;;12.10;99.90;;;;;;4824874;29;20207;-90
2022/05/11 05:07:56;;;;;;;2.58;1.88;;;;;;;;;;4825057;29;20565;-89
2022/05/11 05:10:22;;;;;;;2.35;1.77;;;12.30;99.90;;;;;;4809826;29;20722;-88
2022/05/11 05:12:48;;;;;;;2.22;1.70;;;;;;;;;;4824532;29;20279;-89
2022/05/11 05:15:16;;;;;;;1.95;1.30;;;12.80;99.90;;;;;;4824143;29;20239;-89
2022/05/11 05:17:42;;;;;;;4.32;2.20;;;12.80;99.90;;;;;;4809224;29;20203;-88
2022/05/11 05:20:10;;;;;;;4.28;1.58;;;13.20;99.90;;;;;;4824447;29;20192;-88
2022/05/11 05:22:43;;;;;;;1.83;1.50;;;13.50;99.90;;;;;;4825554;29;20213;-88
2022/05/11 05:25:21;;;;;;;1.70;1.15;;;13.40;99.90;;;;;;4824419;29;20194;-89
2022/05/11 05:27:50;;;;;;;1.92;1.52;;;13.60;99.90;;;;;;4792555;29;20701;-89
2022/05/11 05:33:08;;;;;;;1.50;1.10;;;;;;;;;;4819967;29;20258;-89
2022/05/11 05:35:44;;;;;;;5.63;1.75;;;14.10;99.90;;;;;;4806438;29;20192;-90
2022/05/11 05:38:14;;;;;;;2.45;1.42;;;14.20;99.90;;;;;;4806012;29;20199;-86
2022/05/11 05:40:57;;;;;;;2.42;1.40;;;14.40;99.90;;;;;;4806337;29;20187;-89
2022/05/11 05:43:34;;;;;;;4.25;1.98;;;14.60;99.90;;;;;;4822052;29;20220;-89
2022/05/11 05:46:34;;;;;;;2.55;1.60;;;14.80;99.90;;;;;;4834854;29;20183;-89
2022/05/11 05:49:00;;;;;;;1.17;0.88;;;;;;;;;;4811772;29;20194;-92
2022/05/11 05:51:31;;;;;;;1.08;0.90;;;15.10;93.80;;;;;;4827584;29;20188;-91
2022/05/11 05:54:00;;;;;;;2.38;1.23;;;;;;;;;;4827126;29;20172;-92
2022/05/11 05:56:43;;;;;;;;;;;;;;;;;;;;;
2022/05/11 05:59:17;;;;;;;2.55;1.25;;;;;;;;;;4828580;29;20259;-92
2022/05/11 06:02:17;;;;;;;;;;;;;;;;;;;;;
2022/05/11 06:05:16;;;;;;;;;;;;;;;;;;;;;
2022/05/11 06:08:15;;;;;;;2.22;1.17;;;15.50;89.90;;;;;;4838684;29;20215;-90
2022/05/11 06:10:50;;;;;;;2.75;1.10;;;;;;;;;;4840417;29;20571;-92
2022/05/11 06:13:27;;;;;;;;;;;;;;;;;;;;;
2022/05/11 06:16:22;;;;;;;3.90;1.77;;;15.90;87.80;;;;;;4840585;29;20207;-91
2022/05/11 06:21:23;;;;;;;1.88;1.30;;;;;;;;;;5340370;24;20290;-91
2022/05/11 06:23:49;;;;;;;2.20;1.42;;;;;;;;;;4826259;29;20199;-93
2022/05/11 06:26:18;;;;;;;2.20;1.40;;;16.30;88.30;;;;;;4821478;29;20188;-89
2022/05/11 06:29:04;;;;;;;1.98;1.33;;;16.40;88.80;;;;;;4815775;29;20177;-95
2022/05/11 06:31:31;;;;;;;5.03;1.40;;;;;;;;;;4825970;29;20198;-94
2022/05/11 06:34:33;;;;;;;1.50;0.90;;;16.60;89.30;;;;;;4815689;29;20191;-93
2022/05/11 06:37:07;;;;;;;8.88;1.88;;;16.80;88.60;;;;;;4812258;29;20652;-94
2022/05/11 06:39:38;;;;;;;2.30;1.35;;;17.00;91.00;;;;;;4796602;29;20189;-93
2022/05/11 06:42:34;;;;;;;2.83;1.48;;;17.10;86.70;;;;;;4814419;29;20196;-93
2022/05/11 06:45:19;;;;;;;;;;;;;;;;;;;;;
2022/05/11 06:47:56;;;;;;;2.72;1.85;;;17.30;87.00;;;;;;4811970;29;20256;-93
2022/05/11 06:50:34;;;;;;;;;;;;;;;;;;;;;
2022/05/11 06:53:13;;;;;;;3.00;1.30;;;17.60;88.40;;;;;;4825944;29;20188;-94
2022/05/11 07:01:22;;;;;;;2.00;1.20;;;;;;;;;;4809051;29;20184;-93
2022/05/11 07:03:52;;;;;;;0.98;0.98;;;18.00;82.20;;;;;;4795382;29;20193;-91
2022/05/11 07:06:18;;;;;;;1.23;0.90;;;;;;;;;;4796339;29;20262;-94
2022/05/11 07:08:49;;;;;;;2.70;1.35;;;;;;;;;;4811297;29;20213;-91
2022/05/11 07:14:03;;;;;;;1.05;0.88;;;18.40;72.60;;;;;;4809808;29;20548;-92
2022/05/11 07:16:29;;;;;;;3.00;1.50;;;;;;;;;;4792727;29;20192;-91
2022/05/11 07:19:02;;;;;;;0.88;0.85;;;;;;;;;;4806973;29;20276;-93
2022/05/11 07:21:29;;;;;;;2.08;1.17;;;;;;;;;;4807174;29;20236;-91
2022/05/11 07:23:55;;;;;;;1.23;1.02;;;;;;;;;;4807085;29;20188;-92
2022/05/11 07:26:24;;;;;;;2.88;1.40;;;;;;;;;;4808880;29;20203;-91
2022/05/11 07:28:52;;;;;;;2.20;1.58;;;;;;;;;;4811562;29;20194;-90
2022/05/11 07:31:18;;;;;;;1.35;0.90;;;;;;;;;;4817872;29;20185;-92
2022/05/11 07:34:07;;;;;;;1.63;1.08;;;19.40;68.90;;;;;;4815065;29;20189;-93
2022/05/11 07:36:33;;;;;;;2.85;1.02;;;;;;;;;;4801767;29;20195;-92
2022/05/11 07:39:04;;;;;;;4.10;1.20;;;;;;;;;;4816262;29;20217;-94
2022/05/11 07:41:40;;;;;;;1.45;1.00;;;19.40;68.30;;;;;;4813396;29;20188;-93
2022/05/11 07:44:14;;;;;;;1.52;1.17;;;;;;;;;;4811879;29;20249;-95
2022/05/11 07:46:43;;;;;;;1.73;1.15;;;19.60;69.10;;;;;;4823944;29;20194;-95
2022/05/11 07:49:18;;;;;;;1.80;1.17;;;19.80;67.50;;;;;;4819619;29;20203;-94
2022/05/11 07:51:49;;;;;;;1.75;1.30;;;19.80;66.90;;;;;;4822474;29;20180;-96
2022/05/11 07:54:41;;;;;;;1.30;0.90;;;20.00;65.10;;;;;;4824859;29;20244;-93
2022/05/11 08:00:32;;;;;;;2.00;1.40;;;;;;;;;;4832184;29;20585;-94
2022/05/11 08:03:12;;;;;;;;;;;;;;;;;;;;;
2022/05/11 08:05:59;;;;;;;1.23;1.13;;;20.30;63.60;;;;;;4824348;29;20244;-94
2022/05/11 08:08:31;;;;;;;1.00;0.90;;;;;;;;;;4819636;29;20184;-91
2022/05/11 08:11:04;;;;;;;2.53;1.08;;;;;;;;;;4817539;29;20332;-92
2022/05/11 08:13:33;;;;;;;1.60;1.05;;;20.40;63.00;;;;;;4814943;29;20589;-93
2022/05/11 08:16:10;;;;;;;;;;;;;;;;;;;;;
2022/05/11 08:18:43;;;;;;;1.10;1.00;;;20.40;63.00;;;;;;4822276;29;20276;-93
2022/05/11 08:21:17;;;;;;;1.20;1.10;;;;;;;;;;4826091;29;20236;-93
2022/05/11 08:23:44;;;;;;;1.40;1.30;;;;;;;;;;4838211;29;20196;-94
2022/05/11 08:26:33;;;;;;;0.93;0.85;;;20.80;63.90;;;;;;4843149;29;20210;-91
2022/05/11 08:28:59;;;;;;;7.70;1.52;;;;;;;;;;4833768;29;20196;-90
2022/05/11 08:34:34;;;;;;;1.67;1.30;;;21.00;62.50;;;;;;4838238;29;20210;-91
2022/05/11 08:37:40;;;;;;;2.08;1.58;;;21.30;62.10;;;;;;4825438;29;20187;-93
2022/05/11 08:40:34;;;;;;;1.50;1.10;;;19.90;62.00;;;;;;4840892;29;20223;-96
2022/05/11 08:43:19;;;;;;;6.68;1.20;;;21.30;59.60;;;;;;4837027;29;20211;-94
2022/05/11 08:46:13;;;;;;;1.40;1.13;;;21.30;59.00;;;;;;4834469;29;20207;-94
2022/05/11 08:48:56;;;;;;;2.70;1.30;;;19.80;58.70;;;;;;4832809;29;20278;-94
2022/05/11 08:51:46;;;;;;;;;;;;;;;;;;;;;
2022/05/11 08:54:14;;;;;;;3.22;1.40;;;;;;;;;;4848957;29;20203;-93
2022/05/11 08:56:43;;;;;;;4.43;1.40;;;21.40;60.80;;;;;;4843854;29;20188;-94
2022/05/11 08:59:31;;;;;;;1.80;0.77;;;21.40;58.40;;;;;;4829555;29;20184;-95
2022/05/11 09:02:39;;;;;;;1.33;1.20;;;21.70;60.00;;;;;;4834795;29;20223;-95
2022/05/11 09:05:08;;;;;;;2.05;1.40;;;;;;;;;;4830493;29;20191;-92
2022/05/11 09:07:44;;;;;;;1.30;1.20;;;21.90;57.40;;;;;;4815405;29;20250;-92
2022/05/11 09:10:22;;;;;;;2.22;1.35;;;21.80;58.40;;;;;;4823194;29;20188;-93
2022/05/11 09:12:56;;;;;;;2.63;1.40;;;21.70;58.50;;;;;;4812056;29;20196;-93
2022/05/11 09:15:54;;;;;;;6.57;2.20;;;21.80;59.20;;;;;;4809999;29;20630;-95
2022/05/11 09:18:43;;;;;;;1.90;1.17;;;21.80;58.70;;;;;;4806009;29;20196;-90
2022/05/11 09:21:25;;;;;;;1.60;1.13;;;22.00;58.60;;;;;;4797286;29;20193;-92
2022/05/11 09:24:23;;;;;;;1.92;1.25;;;22.00;58.30;;;;;;4802014;29;20573;-92
2022/05/11 09:27:15;;;;;;;2.65;1.65;;;22.10;58.00;;;;;;4802222;29;20201;-92
2022/05/11 09:29:44;;;;;;;2.47;1.40;;;22.40;58.90;;;;;;4806102;29;20177;-93
2022/05/11 09:32:24;;;;;;;1.17;1.08;;;22.70;58.70;;;;;;4811348;29;20197;-93
2022/05/11 09:34:53;;;;;;;1.35;1.13;;;;;;;;;;4795899;29;20196;-94
2022/05/11 09:37:44;;;;;;;;;;;;;;;;;;;;;
2022/05/11 09:40:35;;;;;;;;;;;;;;;;;;;;;
2022/05/11 09:43:24;;;;;;;2.78;1.55;;;23.00;56.70;;;;;;4795677;30;20638;-93
2022/05/11 09:45:50;;;;;;;1.33;1.20;;;;;;;;;;4795583;29;20667;-94
2022/05/11 09:51:49;;;;;;;5.18;1.95;;;;;;;;;;4794363;29;20230;-95
2022/05/11 09:54:32;;;;;;;4.53;1.58;;;23.40;55.30;;;;;;4798403;29;20203;-93
2022/05/11 09:57:31;;;;;;;1.17;1.08;;;23.30;55.30;;;;;;4801012;29;20240;-95
2022/05/11 10:00:42;;;;;;;2.08;1.50;;;23.30;56.10;;;;;;4817914;29;20193;-93
2022/05/11 10:03:41;;;;;;;2.08;1.48;;;23.30;57.20;;;;;;4809908;29;20307;-93
2022/05/11 10:09:09;;;;;;;4.13;2.00;;;23.50;55.80;;;;;;4812021;29;20192;-95
2022/05/11 10:11:59;;;;;;;2.20;1.60;;;23.60;56.10;;;;;;4811546;29;20189;-92
2022/05/11 10:23:42;;;;;;;;;;;;;;;;;;;;;
2022/05/11 10:26:30;;;;;;;1.77;1.58;;;24.70;56.60;;;;;;4815255;29;20252;-94
2022/05/11 10:29:23;;;;;;;2.20;1.60;;;24.70;55.60;;;;;;4829579;29;20227;-95
2022/05/11 10:32:24;;;;;;;;;;;;;;;;;;;;;
2022/05/11 10:34:52;;;;;;;3.85;1.83;;;;;;;;;;4812377;29;20264;-92
2022/05/11 10:37:55;;;;;;;2.10;1.70;;;24.10;55.90;;;;;;4814527;29;20191;-95
2022/05/11 10:41:08;;;;;;;3.40;1.98;;;24.10;56.40;;;;;;4779518;29;20192;-95
2022/05/11 10:43:46;;;;;;;1.70;1.48;;;24.20;55.90;;;;;;4810142;29;20215;-93
2022/05/11 10:46:55;;;;;;;;;;;;;;;;;;;;;
2022/05/11 10:49:46;;;;;;;3.05;1.63;;;23.70;56.30;;;;;;4808204;29;20207;-94
2022/05/11 10:52:26;;;;;;;3.03;1.85;;;23.70;57.40;;;;;;4831461;29;20183;-96
2022/05/11 10:55:25;;;;;;;2.85;1.88;;;23.70;57.60;;;;;;4834874;29;20216;-95
2022/05/11 10:58:35;;;;;;;2.97;1.58;;;23.70;57.20;;;;;;4832844;29;20242;-90
2022/05/11 11:01:15;;;;;;;3.22;1.77;;;23.70;57.80;;;;;;4832217;29;20192;-92
2022/05/11 11:04:10;;;;;;;3.60;2.08;;;23.70;59.70;;;;;;4829398;29;20268;-95
2022/05/11 11:09:31;;;;;;;;;;;;;;;;;;;;;
2022/05/11 11:12:25;;;;;;;3.78;1.45;;;24.10;56.80;;;;;;4839571;29;20214;-93
2022/05/11 11:14:55;;;;;;;3.00;2.22;;;24.00;58.00;;;;;;4835102;29;20195;-95
2022/05/11 11:17:33;;;;;;;;;;;;;;;;;;;;;
2022/05/11 11:20:04;;;;;;;2.67;1.55;;;23.70;58.40;;;;;;4835087;29;20259;-92
2022/05/11 11:23:03;;;;;;;2.17;1.70;;;23.90;58.40;;;;;;4829842;29;20207;-93
2022/05/11 11:25:51;;;;;;;3.22;1.80;;;24.00;57.60;;;;;;4827443;29;20244;-92
2022/05/11 11:28:28;;;;;;;3.53;1.70;;;24.00;60.20;;;;;;4830616;29;20219;-93
2022/05/11 11:31:26;;;;;;;12.43;2.97;;;24.20;59.00;;;;;;4837451;29;20191;-93
2022/05/11 11:34:31;;;;;;;2.75;1.85;;;24.50;58.90;;;;;;4823948;29;20223;-94
2022/05/11 11:38:02;;;;;;;1.75;1.55;;;24.60;58.60;;;;;;4839616;29;20211;-93
2022/05/11 11:40:38;;;;;;;3.55;2.25;;;24.60;58.50;;;;;;4828852;29;20192;-94
2022/05/11 11:49:00;;;;;;;4.47;2.00;;;24.30;59.10;;;;;;4821130;29;20216;-94
2022/05/11 12:28:38;;;;;;;2.90;2.25;;;25.20;58.70;;;;;;4835097;24;20252;-92
2022/05/11 12:31:27;;;;;;;4.50;2.90;;;25.30;59.80;;;;;;4811385;30;20196;-93
2022/05/11 13:28:25;;;;;;;2.88;2.38;;;;;;;;;;4793125;29;20226;-91
2022/05/11 13:30:56;;;;;;;3.15;2.55;;;24.90;61.20;;;;;;4809516;29;20298;-92
2022/05/11 13:33:37;;;;;;;3.05;2.55;;;24.90;61.50;;;;;;4809583;29;20257;-92
2022/05/11 13:36:16;;;;;;;5.72;2.67;;;25.00;61.90;;;;;;4808685;29;20189;-95
2022/05/11 13:39:18;;;;;;;3.15;2.80;;;25.10;61.40;;;;;;4809062;29;20166;-89
2022/05/11 13:41:53;;;;;;;4.38;3.05;;;25.20;60.00;;;;;;4808883;29;20185;-91
2022/05/11 13:44:43;;;;;;;;;;;;;;;;;;;;;
2022/05/11 13:50:27;;;;;;;3.47;2.97;;;25.00;64.90;;;;;;4776237;30;20185;-88
2022/05/11 13:53:05;;;;;;;4.00;2.70;;;25.00;61.70;;;;;;4786540;30;20668;-88
2022/05/11 13:55:37;;;;;;;2.53;2.33;;;;;;;;;;4790017;30;20652;-91
2022/05/11 13:58:43;;;;;;;4.70;2.70;;;24.90;61.70;;;;;;4788120;30;20553;-91
2022/05/11 14:01:15;;;;;;;2.40;1.98;;;24.80;60.50;;;;;;4743690;30;20210;-88
2022/05/11 14:03:56;;;;;;;2.90;2.38;;;24.80;61.60;;;;;;4746129;30;20222;-88
2022/05/11 14:06:59;;;;;;;3.42;2.50;;;24.70;61.60;;;;;;4769895;30;20202;-91
2022/05/11 14:09:28;;;;;;;3.97;2.63;;;24.70;62.40;;;;;;4769525;30;20227;-89
2022/05/11 14:11:54;;;;;;;5.53;3.22;;;;;;;;;;4793026;30;20189;-91
2022/05/11 14:14:28;;;;;;;2.90;2.60;;;;;;;;;;4774230;30;20625;-91
2022/05/11 14:17:01;;;;;;;3.47;2.40;;;;;;;;;;4783731;30;20190;-89
2022/05/11 14:19:28;;;;;;;3.00;2.67;;;;;;;;;;4781401;30;20182;-91
2022/05/11 14:21:59;;;;;;;3.78;2.40;;;24.90;63.50;;;;;;4773741;30;20222;-93
2022/05/11 14:24:40;;;;;;;9.05;2.80;;;24.90;62.20;;;;;;4771513;30;20274;-91
2022/05/11 14:27:11;;;;;;;4.50;2.50;;;24.70;62.50;;;;;;4771823;30;20313;-91
2022/05/11 14:30:02;;;;;;;3.42;2.63;;;24.90;62.80;;;;;;4790726;30;20190;-92
2022/05/11 14:32:36;;;;;;;3.15;2.60;;;24.80;63.40;;;;;;4766053;30;20571;-93
2022/05/11 14:35:11;;;;;;;5.68;2.30;;;24.80;63.40;;;;;;4791163;29;20178;-93
2022/05/11 14:37:48;;;;;;;;;;;;;;;;;;;;;
2022/05/11 14:40:46;;;;;;;3.63;2.42;;;24.70;63.20;;;;;;4772810;30;20636;-91
2022/05/11 14:43:17;;;;;;;3.75;2.72;;;24.80;64.00;;;;;;4772140;30;20703;-89
2022/05/11 14:45:55;;;;;;;2.92;2.42;;;24.80;64.00;;;;;;4802018;30;20189;-90
2022/05/11 14:48:47;;;;;;;3.55;2.60;;;24.80;63.80;;;;;;4788577;30;20185;-89
2022/05/11 14:51:28;;;;;;;3.70;2.75;;;24.80;65.20;;;;;;4773267;30;20661;-89
2022/05/11 14:53:55;;;;;;;3.70;2.53;;;;;;;;;;4785634;29;20224;-89
2022/05/11 14:56:23;;;;;;;3.72;2.63;;;;;;;;;;4785971;30;20186;-91
2022/05/11 15:02:06;;;;;;;2.33;2.13;;;24.70;63.30;;;;;;4792565;29;20227;-92
2022/05/11 15:04:49;;;;;;;;;;;;;;;;;;;;;
2022/05/11 15:07:58;;;;;;;2.88;2.40;;;24.80;64.40;;;;;;4777394;29;20703;-94
2022/05/11 15:13:39;;;;;;;2.72;2.50;;;24.70;63.00;;;;;;4768240;30;20304;-92
2022/05/11 15:16:33;;;;;;;2.40;2.20;;;24.80;62.90;;;;;;4771878;30;20210;-93
2022/05/11 15:19:06;;;;;;;4.43;3.13;;;;;;;;;;4783511;30;20220;-89
2022/05/11 15:21:35;;;;;;;2.67;2.05;;;;;;;;;;4760948;30;20186;-91
2022/05/11 15:24:19;;;;;;;3.58;2.45;;;25.30;62.60;;;;;;4754153;30;20249;-91
2022/05/11 15:26:53;;;;;;;8.65;3.08;;;;;;;;;;4726289;30;20279;-92
2022/05/11 15:29:40;;;;;;;;;;;;;;;;;;;;;
2022/05/11 15:35:33;;;;;;;3.40;3.00;;;25.90;61.00;;;;;;4755968;30;20296;-94
2022/05/11 15:41:16;;;;;;;3.92;2.50;;;;;;;;;;4749529;30;20191;-93
2022/05/11 15:46:43;;;;;;;3.92;2.42;;;26.60;59.80;;;;;;4752603;30;20645;-89
2022/05/11 15:49:32;;;;;;;3.47;2.75;;;26.80;59.20;;;;;;4753670;30;20198;-88
2022/05/11 15:51:58;;;;;;;4.82;2.95;;;;;;;;;;4754830;30;20186;-91
2022/05/11 15:54:33;;;;;;;3.55;2.45;;;27.10;58.70;;;;;;4758393;30;20197;-89
2022/05/11 15:57:04;;;;;;;4.20;2.28;;;26.90;58.10;;;;;;4768053;30;20190;-89
2022/05/11 15:59:37;;;;;;;3.03;2.38;;;26.90;59.30;;;;;;4772701;30;20190;-92
2022/05/11 16:02:09;;;;;;;3.75;2.85;;;27.00;59.40;;;;;;4758170;30;20221;-93
2022/05/11 16:04:48;;;;;;;;;;;;;;;;;;;;;
2022/05/11 16:07:23;;;;;;;3.58;2.55;;;27.20;59.20;;;;;;4773518;30;20190;-90
2022/05/11 16:10:01;;;;;;;;;;;;;;;;;;;;;
2022/05/11 16:12:46;;;;;;;4.10;2.47;;;27.00;58.50;;;;;;4772978;30;20194;-90
2022/05/11 16:15:28;;;;;;;3.50;2.47;;;26.90;59.50;;;;;;4772235;30;20213;-89
2022/05/11 16:21:16;;;;;;;;;;;;;;;;;;;;;
2022/05/11 16:23:52;;;;;;;2.72;2.47;;;26.00;62.80;;;;;;4774204;30;20210;-93
2022/05/11 16:26:20;;;;;;;4.28;2.60;;;;;;;;;;4781702;30;20223;-94
2022/05/11 16:28:53;;;;;;;15.52;2.92;;;;;;;;;;4787645;30;20217;-92
2022/05/11 16:31:19;;;;;;;2.83;2.40;;;;;;;;;;4777715;30;20681;-95
2022/05/11 16:33:58;;;;;;;;;;;;;;;;;;;;;
2022/05/11 16:36:27;;;;;;;3.80;2.72;;;25.10;67.10;;;;;;4775090;30;20163;-95
2022/05/11 16:38:53;;;;;;;2.90;2.50;;;;;;;;;;4789172;30;20182;-95
2022/05/11 16:41:32;;;;;;;;;;;;;;;;;;;;;
2022/05/11 16:44:08;;;;;;;2.80;2.38;;;;;;;;;;4775039;30;20216;-95
2022/05/11 16:46:51;;;;;;;;;;;;;;;;;;;;;
2022/05/11 16:49:42;;;;;;;2.90;2.45;;;24.50;71.00;;;;;;4777262;30;20334;-94
2022/05/11 16:52:11;;;;;;;4.80;3.08;;;24.40;71.80;;;;;;4759315;30;20699;-89
2022/05/11 16:54:59;;;;;;;;;;;;;;;;;;;;;
2022/05/11 16:57:41;;;;;;;4.18;2.85;;;;;;;;;;4775797;30;20202;-90
2022/05/11 17:00:18;;;;;;;7.45;3.17;;;24.20;75.00;;;;;;4778281;30;20209;-93
2022/05/11 17:02:44;;;;;;;6.45;2.70;;;;;;;;;;4791807;29;20281;-91
2022/05/11 17:05:21;;;;;;;3.22;2.92;;;24.10;72.90;;;;;;4782322;30;20550;-91
2022/05/11 17:08:03;;;;;;;2.60;2.40;;;23.70;73.00;;;;;;4836326;24;20298;-91
2022/05/11 17:10:35;;;;;;;2.97;2.50;;;26.60;72.70;;;;;;4800367;29;20193;-95
2022/05/11 17:13:21;;;;;;;;;;;;;;;;;;;;;
2022/05/11 17:16:35;;;;;;;3.35;2.97;;;24.00;71.80;;;;;;4795465;29;20181;-91
2022/05/11 17:19:24;;;;;;;5.70;3.10;;;;;;;;;;4791579;29;20219;-91
2022/05/11 17:21:59;;;;;;;5.32;3.53;;;23.80;72.80;;;;;;4790920;29;20190;-93